createdAt,value
2019-05-15T00:00:24.303Z,1.10
2019-05-15T00:02:53.677Z,1.17
2019-05-15T00:05:22.881Z,1.30
2019-05-15T00:07:52.122Z,1.40
2019-05-15T00:10:21.363Z,1.83
2019-05-15T00:12:50.557Z,1.13
2019-05-15T00:15:19.746Z,1.57
2019-05-15T00:17:48.953Z,1.70
2019-05-15T00:20:20.256Z,1.40
2019-05-15T00:22:48.455Z,1.50
2019-05-15T00:25:18.782Z,1.20
2019-05-15T00:27:45.989Z,1.73
2019-05-15T00:30:15.355Z,1.17
2019-05-15T00:32:44.685Z,1.40
2019-05-15T00:35:14.046Z,1.33
2019-05-15T00:37:43.350Z,1.47
2019-05-15T00:40:12.629Z,1.00
2019-05-15T00:42:41.925Z,1.60
2019-05-15T00:45:11.130Z,1.20
2019-05-15T00:47:40.349Z,1.27
2019-05-15T00:50:09.573Z,1.67
2019-05-15T00:52:39.320Z,1.60
2019-05-15T00:55:08.612Z,1.30
2019-05-15T00:57:39.304Z,1.10
2019-05-15T01:00:08.200Z,1.30
2019-05-15T01:02:35.662Z,1.50
2019-05-15T01:05:04.906Z,1.13
2019-05-15T01:07:34.157Z,1.40
2019-05-15T01:10:03.395Z,1.40
2019-05-15T01:12:32.672Z,1.30
2019-05-15T01:15:01.995Z,1.17
2019-05-15T01:17:31.217Z,1.10
2019-05-15T01:20:00.437Z,1.10
2019-05-15T01:22:29.731Z,1.17
2019-05-15T01:24:59.072Z,1.53
2019-05-15T01:27:29.178Z,1.33
2019-05-15T01:29:58.172Z,1.20
2019-05-15T01:32:28.394Z,1.70
2019-05-15T01:34:57.964Z,1.40
2019-05-15T01:37:25.045Z,1.27
2019-05-15T01:39:54.272Z,1.13
2019-05-15T01:42:23.433Z,1.27
2019-05-15T01:44:52.620Z,1.20
2019-05-15T01:47:21.810Z,1.33
2019-05-15T01:49:51.001Z,1.27
2019-05-15T01:52:20.206Z,1.20
2019-05-15T01:54:49.400Z,1.40
2019-05-15T01:57:18.636Z,1.07
2019-05-15T01:59:57.320Z,1.17
2019-05-15T02:02:18.733Z,1.30
2019-05-15T02:04:48.524Z,1.27
2019-05-15T02:07:15.515Z,1.20
2019-05-15T02:09:44.724Z,1.37
2019-05-15T02:12:13.937Z,1.20
2019-05-15T02:14:43.138Z,1.67
2019-05-15T02:17:12.338Z,1.50
2019-05-15T02:19:41.505Z,1.57
2019-05-15T02:22:10.778Z,1.60
2019-05-15T02:24:40.033Z,1.37
2019-05-15T02:27:09.237Z,1.33
2019-05-15T02:29:38.427Z,1.90
2019-05-15T02:32:10.118Z,1.30
2019-05-15T02:34:39.614Z,1.27
2019-05-15T02:37:08.791Z,1.57
2019-05-15T02:39:35.295Z,1.37
2019-05-15T02:42:04.503Z,1.70
2019-05-15T02:44:33.705Z,1.50
2019-05-15T02:47:02.909Z,1.70
2019-05-15T02:49:32.121Z,1.90
2019-05-15T02:52:01.354Z,1.80
2019-05-15T02:54:30.582Z,1.40
2019-05-15T02:56:59.777Z,1.50
2019-05-15T02:59:29.276Z,1.40
2019-05-15T03:01:59.409Z,1.40
2019-05-15T03:04:29.081Z,1.53
2019-05-15T03:07:00.048Z,1.40
2019-05-15T03:09:29.454Z,1.50
2019-05-15T03:11:55.122Z,1.50
2019-05-15T03:14:24.328Z,1.77
2019-05-15T03:16:53.602Z,1.60
2019-05-15T03:19:22.922Z,1.50
2019-05-15T03:21:52.146Z,1.50
2019-05-15T03:24:21.361Z,1.90
2019-05-15T03:26:50.581Z,2.10
2019-05-15T03:29:21.217Z,1.80
2019-05-15T03:32:07.699Z,1.80
2019-05-15T03:34:23.162Z,3.60
2019-05-15T03:36:52.696Z,5.53
2019-05-15T03:39:19.043Z,3.53
2019-05-15T03:41:45.813Z,2.20
2019-05-15T03:44:15.039Z,1.97
2019-05-15T03:46:44.261Z,1.80
2019-05-15T03:49:13.479Z,2.50
2019-05-15T03:51:45.601Z,3.17
2019-05-15T03:54:11.868Z,2.10
2019-05-15T03:56:41.101Z,1.97
2019-05-15T03:59:10.304Z,1.93
2019-05-15T04:01:43.580Z,1.63
2019-05-15T04:04:09.570Z,2.17
2019-05-15T04:06:39.074Z,1.30
2019-05-15T04:09:09.532Z,1.43
2019-05-15T04:11:38.855Z,1.20
2019-05-15T04:14:05.592Z,0.90
2019-05-15T04:16:34.777Z,0.53
2019-05-15T04:19:04.011Z,0.70
2019-05-15T04:21:33.183Z,0.93
2019-05-15T04:24:02.416Z,1.47
2019-05-15T04:26:31.610Z,1.00
2019-05-15T04:29:00.830Z,1.00
2019-05-15T04:31:49.774Z,1.20
2019-05-15T04:33:59.440Z,1.43
2019-05-15T04:36:29.625Z,1.50
2019-05-15T04:38:58.715Z,2.50
2019-05-15T04:41:29.664Z,2.40
2019-05-15T04:43:59.520Z,2.33
2019-05-15T04:46:25.351Z,1.43
2019-05-15T04:48:54.593Z,2.00
2019-05-15T04:51:23.796Z,1.20
2019-05-15T04:53:52.998Z,1.60
2019-05-15T04:56:22.209Z,1.50
2019-05-15T04:58:51.421Z,1.60
2019-05-15T05:01:20.675Z,1.30
2019-05-15T05:03:49.983Z,1.00
2019-05-15T05:06:19.301Z,1.67
2019-05-15T05:08:49.108Z,0.70
2019-05-15T05:11:20.633Z,1.33
2019-05-15T05:13:48.637Z,1.17
2019-05-15T05:16:19.137Z,1.73
2019-05-15T05:18:48.818Z,1.60
2019-05-15T05:21:18.276Z,1.60
2019-05-15T05:23:45.335Z,1.63
2019-05-15T05:26:14.523Z,1.20
2019-05-15T05:28:43.783Z,1.73
2019-05-15T05:31:14.200Z,2.30
2019-05-15T05:33:42.407Z,1.23
2019-05-15T05:36:11.619Z,1.93
2019-05-15T05:38:40.790Z,3.10
2019-05-15T05:41:10.003Z,2.67
2019-05-15T05:43:39.194Z,1.87
2019-05-15T05:46:09.192Z,1.47
2019-05-15T05:48:38.316Z,2.00
2019-05-15T05:51:09.146Z,1.37
2019-05-15T05:53:38.137Z,2.00
2019-05-15T05:56:05.222Z,1.70
2019-05-15T05:58:34.438Z,1.27
2019-05-15T06:01:03.679Z,1.50
2019-05-15T06:03:32.870Z,1.50
2019-05-15T06:06:02.062Z,1.90
2019-05-15T06:08:31.330Z,2.10
2019-05-15T06:11:00.494Z,1.97
2019-05-15T06:13:29.817Z,1.90
2019-05-15T06:15:59.278Z,1.97
2019-05-15T06:18:28.680Z,1.67
2019-05-15T06:20:58.598Z,1.33
2019-05-15T06:23:33.768Z,1.07
2019-05-15T06:25:59.016Z,0.70
2019-05-15T06:28:28.672Z,1.60
2019-05-15T06:30:54.991Z,1.90
2019-05-15T06:33:24.190Z,2.13
2019-05-15T06:35:53.358Z,2.67
2019-05-15T06:38:22.823Z,2.50
2019-05-15T06:40:52.090Z,1.57
2019-05-15T06:43:21.857Z,1.93
2019-05-15T06:45:51.105Z,1.60
2019-05-15T06:48:20.309Z,1.13
2019-05-15T06:50:49.572Z,1.02
2019-05-15T06:53:19.500Z,1.00
2019-05-15T06:55:48.746Z,1.50
2019-05-15T06:58:19.141Z,0.80
2019-05-15T07:00:48.797Z,1.20
2019-05-15T07:03:24.067Z,1.03
2019-05-15T07:05:47.816Z,1.67
2019-05-15T07:08:18.167Z,1.20
2019-05-15T07:10:45.733Z,0.80
2019-05-15T07:13:14.968Z,1.40
2019-05-15T07:15:44.149Z,0.97
2019-05-15T07:18:13.393Z,1.27
2019-05-15T07:20:42.661Z,1.00
2019-05-15T07:23:11.861Z,0.80
2019-05-15T07:25:41.058Z,0.93
2019-05-15T07:28:10.338Z,2.13
2019-05-15T07:30:41.086Z,0.80
2019-05-15T07:33:08.896Z,1.30
2019-05-15T07:35:38.649Z,1.20
2019-05-15T07:38:08.029Z,1.33
2019-05-15T07:40:38.786Z,1.80
2019-05-15T07:43:09.098Z,1.33
2019-05-15T07:45:35.357Z,1.20
2019-05-15T07:48:04.545Z,1.10
2019-05-15T07:50:33.756Z,1.30
2019-05-15T07:53:02.967Z,1.27
2019-05-15T07:55:32.205Z,1.77
2019-05-15T07:58:01.398Z,1.30
2019-05-15T08:00:31.045Z,1.03
2019-05-15T08:03:00.290Z,1.10
2019-05-15T08:05:29.559Z,1.13
2019-05-15T08:07:58.749Z,1.47
2019-05-15T08:10:28.436Z,0.80
2019-05-15T08:12:58.122Z,1.20
2019-05-15T08:15:28.564Z,1.10
2019-05-15T08:18:05.501Z,1.20
2019-05-15T08:20:24.758Z,0.93
2019-05-15T08:22:53.958Z,1.37
2019-05-15T08:25:32.282Z,1.27
2019-05-15T08:27:52.802Z,1.27
2019-05-15T08:30:21.997Z,1.00
2019-05-15T08:32:51.822Z,1.20
2019-05-15T08:35:20.397Z,1.10
2019-05-15T08:37:49.676Z,1.77
2019-05-15T08:40:18.847Z,0.93
2019-05-15T08:42:56.388Z,1.00
2019-05-15T08:45:18.848Z,1.10
2019-05-15T08:47:48.953Z,0.80
2019-05-15T08:50:18.122Z,0.90
2019-05-15T08:52:44.989Z,0.70
2019-05-15T08:55:14.189Z,1.27
2019-05-15T08:57:44.665Z,0.80
2019-05-15T09:00:13.839Z,1.03
2019-05-15T09:02:43.040Z,0.70
2019-05-15T09:05:12.219Z,0.77
2019-05-15T09:07:41.433Z,0.80
2019-05-15T09:10:11.175Z,1.00
2019-05-15T09:12:40.351Z,0.87
2019-05-15T09:15:09.706Z,1.00
2019-05-15T09:17:39.906Z,0.90
2019-05-15T09:20:08.262Z,1.10
2019-05-15T09:22:38.248Z,1.13
2019-05-15T09:25:08.869Z,1.93
2019-05-15T09:27:38.110Z,1.97
2019-05-15T09:30:05.120Z,0.97
2019-05-15T09:32:34.325Z,1.33
2019-05-15T09:35:03.554Z,1.17
2019-05-15T09:37:33.783Z,1.23
2019-05-15T09:40:01.955Z,1.30
2019-05-15T09:42:31.159Z,1.27
2019-05-15T09:45:00.334Z,1.10
2019-05-15T09:47:29.826Z,1.43
2019-05-15T09:49:59.020Z,1.60
2019-05-15T09:52:30.150Z,0.90
2019-05-15T09:54:59.293Z,0.90
2019-05-15T09:57:30.163Z,1.30
2019-05-15T09:59:58.663Z,1.00
2019-05-15T10:02:28.367Z,1.33
2019-05-15T10:05:05.909Z,1.50
2019-05-15T10:07:24.894Z,1.50
2019-05-15T10:09:54.095Z,0.80
2019-05-15T10:12:23.325Z,0.93
2019-05-15T10:14:52.503Z,0.90
2019-05-15T10:17:21.726Z,1.20
2019-05-15T10:19:50.929Z,1.10
2019-05-15T10:22:20.093Z,1.87
2019-05-15T10:24:50.857Z,1.60
2019-05-15T10:27:18.566Z,1.30
2019-05-15T10:29:48.437Z,0.80
2019-05-15T10:32:19.474Z,0.80
2019-05-15T10:34:46.278Z,1.10
2019-05-15T10:37:18.390Z,1.20
2019-05-15T10:39:44.723Z,0.90
2019-05-15T10:42:13.904Z,1.10
2019-05-15T10:44:43.143Z,1.30
2019-05-15T10:47:12.301Z,1.50
2019-05-15T10:49:41.564Z,1.50
2019-05-15T10:52:11.376Z,1.20
2019-05-15T10:54:40.062Z,1.00
2019-05-15T10:57:09.246Z,0.97
2019-05-15T10:59:38.439Z,0.73
2019-05-15T11:02:08.589Z,1.10
2019-05-15T11:04:39.131Z,1.20
2019-05-15T11:07:06.237Z,0.80
2019-05-15T11:09:37.552Z,1.33
2019-05-15T11:12:04.661Z,1.37
2019-05-15T11:14:33.846Z,0.90
2019-05-15T11:17:03.081Z,0.80
2019-05-15T11:19:36.102Z,1.23
2019-05-15T11:22:01.551Z,0.88
2019-05-15T11:24:32.390Z,1.57
2019-05-15T11:27:00.098Z,0.80
2019-05-15T11:29:29.351Z,0.90
2019-05-15T11:31:58.533Z,1.20
2019-05-15T11:34:28.979Z,0.93
2019-05-15T11:36:59.360Z,0.90
2019-05-15T11:39:28.649Z,1.00
2019-05-15T11:41:55.424Z,1.00
2019-05-15T11:44:24.615Z,0.90
2019-05-15T11:46:53.826Z,1.00
2019-05-15T11:49:23.467Z,1.00
2019-05-15T11:51:52.713Z,1.10
2019-05-15T11:54:22.034Z,0.70
2019-05-15T11:56:51.308Z,0.70
2019-05-15T11:59:20.493Z,1.10
2019-05-15T12:01:49.668Z,1.20
2019-05-15T12:04:27.628Z,1.47
2019-05-15T12:06:58.709Z,1.10
2019-05-15T12:09:18.760Z,0.70
2019-05-15T12:11:46.812Z,1.00
2019-05-15T12:14:18.617Z,0.50
2019-05-15T12:17:02.258Z,0.90
2019-05-15T12:19:17.385Z,1.40
2019-05-15T12:21:43.870Z,1.30
2019-05-15T12:24:13.123Z,0.80
2019-05-15T12:26:42.768Z,0.77
2019-05-15T12:29:11.979Z,1.03
2019-05-15T12:31:41.193Z,1.00
2019-05-15T12:34:10.471Z,1.10
2019-05-15T12:36:51.682Z,1.20
2019-05-15T12:39:13.266Z,0.97
2019-05-15T13:01:32.268Z,1.00
2019-05-15T13:04:01.503Z,0.80
2019-05-15T13:06:30.723Z,1.37
2019-05-15T13:08:59.978Z,0.90
2019-05-15T13:11:29.179Z,0.80
2019-05-15T13:13:59.094Z,0.90
2019-05-15T13:16:28.165Z,0.80
2019-05-15T13:18:58.660Z,1.37
2019-05-15T13:21:26.040Z,0.90
2019-05-15T13:23:55.230Z,0.90
2019-05-15T13:26:26.954Z,1.30
2019-05-15T13:28:53.656Z,1.27
2019-05-15T13:31:22.885Z,1.20
2019-05-15T13:33:52.092Z,0.80
2019-05-15T13:36:21.272Z,0.80
2019-05-15T13:38:50.509Z,1.10
2019-05-15T13:41:19.717Z,1.20
2019-05-15T13:43:49.351Z,1.80
2019-05-15T13:46:20.568Z,1.23
2019-05-15T13:48:49.051Z,1.10
2019-05-15T13:51:18.284Z,1.00
2019-05-15T13:53:46.011Z,1.17
2019-05-15T13:56:15.477Z,1.77
2019-05-15T13:58:44.670Z,1.50
2019-05-15T14:01:13.957Z,1.00
2019-05-15T14:03:43.179Z,1.40
2019-05-15T14:06:12.415Z,1.50
2019-05-15T14:08:41.638Z,1.70
2019-05-15T14:11:10.836Z,1.60
2019-05-15T14:13:40.017Z,1.13
2019-05-15T14:16:09.811Z,1.77
2019-05-15T14:18:39.021Z,1.50
2019-05-15T14:21:08.961Z,1.77
2019-05-15T14:23:38.395Z,1.27
2019-05-15T14:26:17.966Z,1.50
2019-05-15T14:28:35.419Z,1.60
2019-05-15T14:31:04.606Z,1.10
2019-05-15T14:33:33.769Z,1.10
2019-05-15T14:36:03.051Z,1.67
2019-05-15T14:38:32.205Z,1.57
2019-05-15T14:41:01.641Z,1.40
2019-05-15T14:43:30.946Z,1.27
2019-05-15T14:46:00.232Z,1.20
2019-05-15T14:48:29.447Z,1.20
2019-05-15T14:50:58.632Z,0.90
2019-05-15T14:53:29.385Z,1.80
2019-05-15T14:56:00.029Z,1.50
2019-05-15T14:58:26.316Z,1.63
2019-05-15T15:00:55.497Z,1.50
2019-05-15T15:03:24.836Z,1.53
2019-05-15T15:05:54.088Z,0.90
2019-05-15T15:08:25.163Z,1.80
2019-05-15T15:10:52.675Z,1.40
2019-05-15T15:13:21.869Z,1.20
2019-05-15T15:15:51.090Z,1.70
2019-05-15T15:18:20.257Z,1.50
2019-05-15T15:20:49.418Z,1.93
2019-05-15T15:23:18.659Z,1.63
2019-05-15T15:25:48.449Z,1.23
2019-05-15T15:28:18.856Z,1.77
2019-05-15T15:30:48.461Z,1.70
2019-05-15T15:33:15.490Z,1.33
2019-05-15T15:35:44.650Z,1.50
2019-05-15T15:38:13.889Z,1.90
2019-05-15T15:40:43.107Z,2.70
2019-05-15T15:43:12.397Z,3.87
2019-05-15T15:45:41.664Z,1.50
2019-05-15T15:48:10.901Z,1.70
2019-05-15T15:50:40.077Z,2.53
2019-05-15T15:53:09.297Z,2.47
2019-05-15T15:55:38.860Z,2.30
2019-05-15T15:58:08.877Z,2.37
2019-05-15T16:00:38.331Z,1.90
2019-05-15T16:03:08.409Z,2.00
2019-05-15T16:05:35.559Z,2.50
2019-05-15T16:08:04.760Z,2.30
2019-05-15T16:10:34.696Z,4.00
2019-05-15T16:13:03.916Z,2.63
2019-05-15T16:15:33.085Z,2.63
2019-05-15T16:18:03.568Z,3.07
2019-05-15T16:20:32.728Z,2.70
2019-05-15T16:23:02.044Z,2.70
2019-05-15T16:25:31.228Z,2.63
2019-05-15T16:28:00.452Z,2.73
2019-05-15T16:30:29.622Z,2.60
2019-05-15T16:32:58.785Z,3.03
2019-05-15T16:35:28.970Z,3.43
2019-05-15T16:37:58.466Z,2.80
2019-05-15T16:40:28.629Z,3.00
2019-05-15T16:42:57.975Z,2.87
2019-05-15T16:45:25.304Z,3.47
2019-05-15T16:47:54.614Z,3.40
2019-05-15T16:50:23.894Z,3.23
2019-05-15T16:52:53.318Z,3.23
2019-05-15T16:55:23.041Z,3.20
2019-05-15T16:57:52.207Z,3.40
2019-05-15T17:00:21.472Z,3.33
2019-05-15T17:02:50.685Z,3.43
2019-05-15T17:05:19.881Z,3.70
2019-05-15T17:07:49.104Z,3.67
2019-05-15T17:10:18.308Z,4.13
2019-05-15T17:12:49.275Z,3.87
2019-05-15T17:15:16.869Z,4.03
2019-05-15T17:17:48.592Z,3.53
2019-05-15T17:20:17.924Z,2.97
2019-05-15T17:22:44.968Z,3.13
2019-05-15T17:25:14.173Z,3.60
2019-05-15T17:27:43.365Z,3.40
2019-05-15T17:30:12.696Z,2.90
2019-05-15T17:32:42.015Z,3.40
2019-05-15T17:35:11.208Z,3.50
2019-05-15T17:37:40.410Z,4.40
2019-05-15T17:40:09.593Z,3.80
2019-05-15T17:42:39.279Z,4.10
2019-05-15T17:45:09.133Z,4.63
2019-05-15T17:47:38.774Z,6.43
2019-05-15T17:50:08.388Z,7.10
2019-05-15T17:52:38.101Z,8.40
2019-05-15T17:55:04.996Z,7.87
2019-05-15T17:57:34.219Z,8.47
2019-05-15T18:00:03.669Z,7.33
2019-05-15T18:02:32.846Z,7.47
2019-05-15T18:05:02.078Z,8.07
2019-05-15T18:07:31.254Z,7.73
2019-05-15T18:10:00.569Z,7.53
2019-05-15T18:12:29.836Z,7.40
2019-05-15T18:14:59.090Z,6.47
2019-05-15T18:17:28.357Z,6.40
2019-05-15T18:19:58.073Z,7.30
2019-05-15T18:22:26.871Z,6.37
2019-05-15T18:24:57.927Z,6.30
2019-05-15T18:27:25.291Z,6.07
2019-05-15T18:29:54.480Z,6.90
2019-05-15T18:32:23.672Z,6.20
2019-05-15T18:34:52.913Z,6.43
2019-05-15T18:37:22.101Z,6.70
2019-05-15T18:40:02.138Z,6.73
2019-05-15T18:42:20.609Z,6.47
2019-05-15T18:44:49.826Z,6.73
2019-05-15T18:47:19.041Z,5.67
2019-05-15T18:50:03.311Z,6.20
2019-05-15T18:52:18.230Z,5.90
2019-05-15T18:54:48.022Z,6.77
2019-05-15T18:57:15.876Z,6.43
2019-05-15T18:59:45.098Z,5.97
2019-05-15T19:02:14.292Z,5.60
2019-05-15T19:04:43.462Z,6.50
2019-05-15T19:07:12.782Z,6.50
2019-05-15T19:09:42.017Z,7.50
2019-05-15T19:12:11.417Z,6.57
2019-05-15T19:14:40.611Z,5.50
2019-05-15T19:17:09.793Z,5.70
2019-05-15T19:19:39.023Z,6.47
2019-05-15T19:22:08.378Z,5.53
2019-05-15T19:24:39.943Z,5.57
2019-05-15T19:27:08.013Z,4.83
2019-05-15T19:29:37.766Z,4.20
2019-05-15T19:32:05.213Z,3.73
2019-05-15T19:34:34.462Z,4.60
2019-05-15T19:37:03.680Z,3.67
2019-05-15T19:39:33.192Z,4.43
2019-05-15T19:42:02.644Z,4.23
2019-05-15T19:44:31.903Z,3.90
2019-05-15T19:47:01.122Z,4.23
2019-05-15T19:49:30.305Z,4.23
2019-05-15T19:51:59.525Z,4.30
2019-05-15T19:54:29.756Z,5.70
2019-05-15T19:56:59.049Z,6.40
2019-05-15T19:59:29.471Z,7.53
2019-05-15T20:01:57.795Z,11.50
2019-05-15T20:04:27.922Z,10.77
2019-05-15T20:06:56.772Z,9.07
2019-05-15T20:09:27.803Z,13.15
2019-05-15T20:11:55.257Z,10.37
2019-05-15T20:14:25.470Z,7.80
2019-05-15T20:16:54.692Z,7.87
2019-05-15T20:19:23.934Z,8.20
2019-05-15T20:21:53.181Z,8.13
2019-05-15T20:24:22.462Z,7.57
2019-05-15T20:26:51.749Z,6.30
2019-05-15T20:29:20.954Z,5.10
2019-05-15T20:31:50.157Z,5.80
2019-05-15T20:34:19.367Z,6.43
2019-05-15T20:36:48.936Z,7.07
2019-05-15T20:39:17.911Z,5.47
2019-05-15T20:41:48.728Z,5.03
2019-05-15T20:44:18.214Z,5.70
2019-05-15T20:46:48.377Z,4.67
2019-05-15T20:49:14.852Z,3.93
2019-05-15T20:51:44.110Z,4.67
2019-05-15T20:54:13.301Z,4.17
2019-05-15T20:56:42.476Z,4.03
2019-05-15T20:59:11.714Z,3.30
2019-05-15T21:01:40.905Z,3.50
2019-05-15T21:04:20.474Z,3.70
2019-05-15T21:06:39.304Z,3.93
2019-05-15T21:09:08.539Z,4.67
2019-05-15T21:11:39.672Z,3.20
2019-05-15T21:14:08.716Z,3.20
2019-05-15T21:16:36.101Z,3.03
2019-05-15T21:19:05.270Z,3.53
2019-05-15T21:21:34.473Z,3.20
2019-05-15T21:24:03.708Z,3.70
2019-05-15T21:26:32.985Z,3.57
2019-05-15T21:29:02.214Z,3.30
2019-05-15T21:31:31.444Z,3.23
2019-05-15T21:34:00.647Z,2.97
2019-05-15T21:36:31.457Z,2.77
2019-05-15T21:38:59.038Z,2.83
2019-05-15T21:41:28.233Z,2.80
2019-05-15T21:43:59.303Z,2.97
2019-05-15T21:46:26.700Z,3.23
2019-05-15T21:48:57.711Z,3.20
2019-05-15T21:51:25.163Z,3.47
2019-05-15T21:53:54.401Z,3.70
2019-05-15T21:56:23.631Z,3.87
2019-05-15T21:58:52.796Z,4.00
2019-05-15T22:01:22.356Z,3.50
2019-05-15T22:03:51.513Z,3.17
2019-05-15T22:06:20.689Z,3.60
2019-05-15T22:08:49.940Z,3.80
2019-05-15T22:11:21.923Z,3.83
2019-05-15T22:13:49.125Z,3.80
2019-05-15T22:16:19.353Z,3.80
2019-05-15T22:18:48.573Z,4.37
2019-05-15T22:21:18.613Z,4.07
2019-05-15T22:23:46.973Z,4.27
2019-05-15T22:26:21.201Z,4.17
2019-05-15T22:28:45.340Z,4.00
2019-05-15T22:31:14.506Z,4.60
2019-05-15T22:33:43.835Z,4.27
2019-05-15T22:36:13.078Z,3.90
2019-05-15T22:38:42.257Z,3.90
2019-05-15T22:41:11.501Z,3.07
2019-05-15T22:43:40.746Z,3.50
2019-05-15T22:46:10.964Z,4.27
2019-05-15T22:48:39.193Z,3.37
2019-05-15T22:51:08.363Z,3.30
2019-05-15T22:53:38.307Z,3.73
2019-05-15T22:56:09.154Z,3.80
2019-05-15T22:58:36.004Z,3.77
2019-05-15T23:01:05.198Z,3.80
2019-05-15T23:03:34.356Z,3.63
2019-05-15T23:06:04.198Z,3.30
2019-05-15T23:08:33.389Z,3.23
2019-05-15T23:11:02.549Z,3.93
2019-05-15T23:13:31.760Z,3.37
2019-05-15T23:16:00.948Z,3.20
2019-05-15T23:18:30.137Z,3.60
2019-05-15T23:20:59.537Z,3.47
2019-05-15T23:23:28.715Z,3.00
2019-05-15T23:25:58.394Z,3.00
2019-05-15T23:28:28.122Z,3.37
2019-05-15T23:30:57.706Z,3.23
2019-05-15T23:33:28.101Z,3.20
2019-05-15T23:35:55.284Z,3.80
2019-05-15T23:38:24.454Z,3.50
2019-05-15T23:40:53.653Z,3.70
2019-05-15T23:43:22.848Z,3.87
2019-05-15T23:45:52.076Z,3.27
2019-05-15T23:48:21.257Z,2.67
2019-05-15T23:50:50.526Z,3.27
2019-05-15T23:53:19.907Z,3.50
2019-05-15T23:55:48.999Z,3.07
2019-05-15T23:58:18.836Z,3.03
